createdAt,value
2019-01-20T00:00:53.071Z,29.40
2019-01-20T00:03:42.322Z,32.90
2019-01-20T00:06:34.420Z,43.60
2019-01-20T00:09:25.870Z,39.58
2019-01-20T00:12:15.479Z,32.78
2019-01-20T00:15:06.102Z,34.30
2019-01-20T00:17:56.448Z,34.95
2019-01-20T00:20:45.760Z,34.88
2019-01-20T00:23:34.902Z,35.58
2019-01-20T00:26:24.171Z,32.10
2019-01-20T00:29:13.361Z,34.10
2019-01-20T00:32:02.585Z,35.85
2019-01-20T00:34:51.838Z,45.23
2019-01-20T00:37:42.708Z,28.47
2019-01-20T00:40:32.658Z,36.98
2019-01-20T00:43:22.149Z,36.17
2019-01-20T00:46:11.478Z,34.35
2019-01-20T00:49:00.658Z,42.70
2019-01-20T00:51:50.012Z,44.45
2019-01-20T00:54:39.381Z,37.90
2019-01-20T00:57:28.470Z,36.00
2019-01-20T01:00:20.808Z,38.65
2019-01-20T01:03:10.060Z,38.60
2019-01-20T01:05:59.398Z,35.73
2019-01-20T01:08:48.741Z,34.15
2019-01-20T01:11:38.119Z,34.60
2019-01-20T01:14:27.468Z,47.85
2019-01-20T01:17:16.881Z,43.13
2019-01-20T01:20:07.731Z,39.60
2019-01-20T01:22:56.978Z,37.80
2019-01-20T01:25:46.528Z,38.02
2019-01-20T01:28:35.761Z,34.98
2019-01-20T01:31:25.061Z,42.15
2019-01-20T01:34:14.188Z,40.00
2019-01-20T01:37:03.489Z,33.65
2019-01-20T01:39:52.988Z,42.75
2019-01-20T01:42:42.215Z,45.45
2019-01-20T01:45:31.440Z,37.53
2019-01-20T01:48:20.670Z,35.17
2019-01-20T01:51:09.929Z,36.05
2019-01-20T01:53:59.244Z,41.55
2019-01-20T01:56:48.531Z,38.35
2019-01-20T01:59:37.762Z,38.13
2019-01-20T02:02:27.460Z,38.53
2019-01-20T02:05:16.864Z,50.80
2019-01-20T02:08:06.269Z,40.48
2019-01-20T02:10:55.946Z,35.23
2019-01-20T02:13:45.119Z,38.53
2019-01-20T02:16:34.611Z,28.12
2019-01-20T02:19:24.091Z,34.83
2019-01-20T02:22:14.499Z,35.05
2019-01-20T02:25:04.058Z,40.50
2019-01-20T02:27:55.571Z,36.75
2019-01-20T02:30:44.773Z,44.83
2019-01-20T02:33:34.452Z,33.42
2019-01-20T02:36:23.661Z,37.20
2019-01-20T02:39:12.870Z,29.72
2019-01-20T02:42:01.952Z,32.40
2019-01-20T02:44:51.192Z,31.93
2019-01-20T02:47:40.712Z,30.72
2019-01-20T02:50:31.053Z,31.15
2019-01-20T02:53:20.270Z,36.35
2019-01-20T02:56:09.733Z,39.48
2019-01-20T02:58:58.968Z,33.95
2019-01-20T03:01:48.332Z,35.55
2019-01-20T03:04:37.551Z,40.83
2019-01-20T03:07:26.879Z,37.15
2019-01-20T03:10:16.759Z,34.45
2019-01-20T03:13:05.983Z,40.40
2019-01-20T03:15:58.379Z,53.13
2019-01-20T03:18:47.832Z,43.35
2019-01-20T03:21:37.320Z,36.48
2019-01-20T03:24:26.678Z,36.55
2019-01-20T03:27:16.058Z,44.63
2019-01-20T03:30:07.672Z,40.58
2019-01-20T03:32:57.393Z,31.17
2019-01-20T03:35:46.520Z,42.65
2019-01-20T03:38:35.774Z,32.85
2019-01-20T03:41:24.911Z,38.78
2019-01-20T03:44:14.121Z,36.17
2019-01-20T03:47:03.458Z,41.60
2019-01-20T03:49:52.824Z,39.60
2019-01-20T03:52:42.058Z,43.10
2019-01-20T03:55:31.379Z,42.88
2019-01-20T03:58:20.550Z,37.83
2019-01-20T04:01:09.763Z,51.40
2019-01-20T04:03:59.136Z,40.25
2019-01-20T04:06:48.461Z,39.67
2019-01-20T04:09:37.749Z,42.53
2019-01-20T04:12:30.655Z,36.30
2019-01-20T04:15:20.001Z,37.23
2019-01-20T04:18:09.771Z,43.75
2019-01-20T04:20:59.541Z,41.68
2019-01-20T04:23:50.228Z,36.75
2019-01-20T04:26:43.412Z,39.10
2019-01-20T04:29:33.781Z,44.93
2019-01-20T04:32:23.243Z,39.27
2019-01-20T04:35:13.253Z,42.38
2019-01-20T04:38:04.583Z,39.58
2019-01-20T04:40:54.853Z,35.10
2019-01-20T04:43:44.936Z,37.80
2019-01-20T04:46:34.609Z,42.93
2019-01-20T04:49:24.819Z,45.67
2019-01-20T04:52:16.550Z,42.00
2019-01-20T04:55:08.471Z,40.03
2019-01-20T04:57:58.295Z,36.55
2019-01-20T05:00:50.082Z,38.92
2019-01-20T05:03:39.803Z,39.60
2019-01-20T05:06:31.014Z,38.63
2019-01-20T05:09:21.828Z,44.03
2019-01-20T05:12:14.496Z,38.83
2019-01-20T05:15:04.992Z,36.77
2019-01-20T05:17:54.983Z,39.03
2019-01-20T05:20:44.590Z,40.23
2019-01-20T05:23:35.392Z,44.05
2019-01-20T05:26:25.159Z,42.62
2019-01-20T05:29:15.051Z,39.03
2019-01-20T05:32:04.870Z,45.92
2019-01-20T05:34:55.032Z,41.80
2019-01-20T05:37:44.072Z,39.73
2019-01-20T05:40:33.935Z,39.65
2019-01-20T05:43:35.880Z,44.33
2019-01-20T05:46:25.738Z,37.03
2019-01-20T05:49:15.188Z,38.50
2019-01-20T05:52:04.852Z,43.45
2019-01-20T05:54:56.793Z,35.30
2019-01-20T05:57:46.114Z,37.73
2019-01-20T06:00:36.144Z,36.65
2019-01-20T06:03:25.783Z,48.23
2019-01-20T06:06:14.946Z,40.85
2019-01-20T06:09:05.691Z,34.48
2019-01-20T06:11:55.243Z,41.50
2019-01-20T06:14:44.478Z,42.38
2019-01-20T06:17:33.942Z,41.53
2019-01-20T06:20:23.739Z,42.05
2019-01-20T06:23:13.090Z,51.70
2019-01-20T06:26:02.541Z,46.42
2019-01-20T06:28:52.009Z,47.65
2019-01-20T06:31:43.213Z,42.70
2019-01-20T06:34:33.080Z,42.03
2019-01-20T06:37:23.426Z,41.33
2019-01-20T06:40:13.743Z,35.73
2019-01-20T06:43:03.865Z,43.58
2019-01-20T06:45:53.903Z,50.95
2019-01-20T06:48:44.042Z,40.05
2019-01-20T06:51:33.616Z,43.40
2019-01-20T06:54:28.195Z,43.63
2019-01-20T06:57:17.760Z,44.27
2019-01-20T07:00:10.487Z,38.23
2019-01-20T07:03:00.505Z,40.00
2019-01-20T07:05:49.687Z,36.85
2019-01-20T07:08:38.878Z,42.78
2019-01-20T07:11:28.217Z,36.93
2019-01-20T07:14:17.758Z,38.40
2019-01-20T07:17:06.968Z,50.10
2019-01-20T07:19:56.509Z,48.17
2019-01-20T07:22:45.729Z,37.50
2019-01-20T07:25:35.018Z,36.48
2019-01-20T07:28:24.231Z,44.33
2019-01-20T07:31:13.687Z,45.90
2019-01-20T07:34:03.598Z,40.63
2019-01-20T07:36:53.791Z,44.95
2019-01-20T07:39:43.654Z,42.50
2019-01-20T07:42:39.805Z,37.20
2019-01-20T07:45:29.641Z,41.02
2019-01-20T07:48:19.431Z,45.90
2019-01-20T07:51:11.031Z,43.45
2019-01-20T07:54:00.727Z,52.13
2019-01-20T07:56:50.688Z,41.75
2019-01-20T07:59:40.592Z,47.98
2019-01-20T08:02:32.204Z,42.35
2019-01-20T08:05:22.054Z,41.20
2019-01-20T08:08:12.199Z,48.60
2019-01-20T08:11:08.146Z,41.10
2019-01-20T08:13:58.272Z,48.65
2019-01-20T08:16:48.758Z,40.45
2019-01-20T08:19:41.590Z,41.65
2019-01-20T08:22:31.533Z,46.05
2019-01-20T08:25:22.041Z,41.23
2019-01-20T08:28:13.037Z,53.08
2019-01-20T08:31:02.000Z,51.55
2019-01-20T08:33:51.142Z,43.45
2019-01-20T08:36:40.368Z,41.73
2019-01-20T08:39:29.662Z,46.53
2019-01-20T08:42:19.227Z,40.73
2019-01-20T08:45:13.567Z,51.20
2019-01-20T08:48:07.411Z,43.73
2019-01-20T08:50:56.970Z,45.52
2019-01-20T08:53:46.118Z,37.10
2019-01-20T08:56:35.343Z,45.23
2019-01-20T08:59:24.849Z,43.98
2019-01-20T09:02:14.008Z,38.28
2019-01-20T09:05:03.270Z,43.15
2019-01-20T09:07:52.620Z,43.92
2019-01-20T09:10:41.870Z,48.58
2019-01-20T09:13:31.207Z,39.13
2019-01-20T09:16:20.782Z,40.78
2019-01-20T09:19:10.009Z,43.75
2019-01-20T09:21:59.228Z,40.80
2019-01-20T09:24:48.478Z,43.85
2019-01-20T09:27:41.018Z,45.05
2019-01-20T09:30:30.717Z,42.00
2019-01-20T09:33:24.796Z,49.40
2019-01-20T09:36:14.171Z,45.58
2019-01-20T09:39:07.052Z,41.77
2019-01-20T09:41:57.446Z,50.65
2019-01-20T09:44:54.466Z,49.98
2019-01-20T09:47:43.757Z,52.13
2019-01-20T09:50:33.128Z,45.55
2019-01-20T09:53:22.427Z,47.62
2019-01-20T09:56:11.629Z,48.45
2019-01-20T09:59:00.797Z,39.00
2019-01-20T10:01:50.228Z,47.60
2019-01-20T10:04:39.488Z,40.98
2019-01-20T10:07:29.734Z,48.08
2019-01-20T10:10:22.177Z,44.27
2019-01-20T10:13:11.570Z,49.75
2019-01-20T10:16:00.809Z,45.23
2019-01-20T10:18:49.901Z,45.58
2019-01-20T10:21:38.998Z,45.50
2019-01-20T10:24:28.248Z,45.20
2019-01-20T10:27:17.561Z,48.78
2019-01-20T10:30:11.775Z,50.15
2019-01-20T10:33:03.366Z,60.33
2019-01-20T10:35:57.428Z,55.23
2019-01-20T10:38:46.761Z,46.55
2019-01-20T10:41:36.879Z,49.20
2019-01-20T10:44:27.068Z,43.38
2019-01-20T10:47:16.730Z,46.85
2019-01-20T10:50:10.444Z,46.42
2019-01-20T10:52:59.970Z,46.00
2019-01-20T10:55:49.171Z,49.73
2019-01-20T10:58:38.409Z,44.93
2019-01-20T11:01:27.619Z,42.53
2019-01-20T11:04:16.969Z,38.17
2019-01-20T11:07:06.680Z,37.60
2019-01-20T11:09:56.129Z,45.73
2019-01-20T11:12:45.278Z,32.98
2019-01-20T11:15:34.518Z,37.25
2019-01-20T11:18:24.058Z,35.55
2019-01-20T11:21:13.298Z,34.55
2019-01-20T11:24:02.875Z,37.00
2019-01-20T11:26:52.863Z,40.88
2019-01-20T11:29:50.087Z,37.83
2019-01-20T11:32:42.640Z,43.92
2019-01-20T11:35:31.778Z,42.30
2019-01-20T11:38:23.604Z,46.23
2019-01-20T11:41:16.548Z,42.78
2019-01-20T11:44:08.693Z,36.08
2019-01-20T11:47:03.809Z,38.98
2019-01-20T11:49:53.655Z,39.03
2019-01-20T11:52:43.546Z,39.78
2019-01-20T11:55:33.668Z,41.90
2019-01-20T11:58:23.640Z,41.83
2019-01-20T12:01:14.660Z,44.05
2019-01-20T12:04:04.834Z,38.35
2019-01-20T12:06:55.012Z,41.95
2019-01-20T12:09:44.519Z,42.20
2019-01-20T12:12:33.702Z,32.05
2019-01-20T12:15:23.200Z,39.45
2019-01-20T12:18:12.578Z,40.03
2019-01-20T12:21:02.079Z,31.60
2019-01-20T12:23:51.191Z,36.50
2019-01-20T12:26:40.691Z,27.15
2019-01-20T12:29:30.113Z,30.68
2019-01-20T12:32:19.402Z,28.30
2019-01-20T12:35:08.949Z,32.85
2019-01-20T12:37:59.391Z,26.20
2019-01-20T12:40:49.563Z,26.80
2019-01-20T12:43:39.257Z,21.07
2019-01-20T12:46:28.972Z,23.55
2019-01-20T12:49:18.740Z,24.80
2019-01-20T12:52:08.754Z,24.43
2019-01-20T12:55:00.311Z,29.15
2019-01-20T12:57:50.493Z,23.65
2019-01-20T13:00:40.638Z,24.40
2019-01-20T13:03:33.075Z,23.15
2019-01-20T13:06:22.711Z,21.37
2019-01-20T13:09:12.140Z,22.22
2019-01-20T13:12:01.800Z,22.00
2019-01-20T13:14:52.037Z,25.95
2019-01-20T13:17:41.139Z,21.62
2019-01-20T13:20:30.440Z,21.90
2019-01-20T13:23:20.032Z,24.30
2019-01-20T13:26:09.452Z,27.58
2019-01-20T13:28:59.768Z,25.10
2019-01-20T13:31:51.578Z,26.37
2019-01-20T13:34:44.299Z,27.15
2019-01-20T13:37:34.677Z,26.75
2019-01-20T13:40:32.412Z,20.97
2019-01-20T13:43:23.684Z,18.02
2019-01-20T13:46:14.246Z,21.48
2019-01-20T13:49:04.711Z,23.62
2019-01-20T13:52:01.861Z,26.00
2019-01-20T13:54:51.883Z,23.80
2019-01-20T13:57:41.602Z,25.95
2019-01-20T14:00:34.052Z,29.77
2019-01-20T14:03:23.649Z,19.40
2019-01-20T14:06:13.258Z,27.95
2019-01-20T14:09:02.334Z,21.73
2019-01-20T14:11:53.264Z,20.68
2019-01-20T14:14:42.480Z,22.05
2019-01-20T14:17:32.061Z,21.05
2019-01-20T14:20:23.274Z,20.32
2019-01-20T14:23:13.079Z,16.60
2019-01-20T14:26:02.452Z,20.12
2019-01-20T14:28:52.983Z,21.60
2019-01-20T14:31:42.505Z,21.15
2019-01-20T14:34:31.478Z,22.50
2019-01-20T14:37:23.757Z,25.48
2019-01-20T14:40:14.025Z,22.80
2019-01-20T14:43:03.268Z,19.90
2019-01-20T14:45:52.622Z,38.05
2019-01-20T14:48:41.981Z,33.70
2019-01-20T14:51:31.171Z,47.78
2019-01-20T14:54:20.530Z,60.90
2019-01-20T14:57:09.751Z,64.12
2019-01-20T14:59:59.071Z,44.03
2019-01-20T15:02:48.298Z,45.65
2019-01-20T15:05:38.187Z,27.80
2019-01-20T15:08:27.579Z,35.60
2019-01-20T15:11:18.087Z,26.52
2019-01-20T15:14:08.220Z,32.98
2019-01-20T15:16:58.291Z,31.37
2019-01-20T15:19:48.014Z,25.80
2019-01-20T15:22:37.650Z,30.75
2019-01-20T15:25:27.117Z,23.05
2019-01-20T15:28:17.077Z,25.65
2019-01-20T15:31:06.968Z,27.65
2019-01-20T15:33:57.267Z,30.68
2019-01-20T15:36:46.968Z,28.42
2019-01-20T15:39:36.832Z,30.17
2019-01-20T15:42:28.210Z,34.75
2019-01-20T15:45:19.161Z,38.78
2019-01-20T15:48:09.140Z,28.02
2019-01-20T15:51:01.621Z,29.65
2019-01-20T15:53:51.017Z,31.42
2019-01-20T15:56:40.818Z,27.35
2019-01-20T15:59:30.099Z,28.40
2019-01-20T16:02:19.288Z,49.90
2019-01-20T16:05:08.600Z,37.67
2019-01-20T16:07:57.807Z,31.23
2019-01-20T16:10:50.398Z,35.70
2019-01-20T16:13:39.995Z,36.83
2019-01-20T16:16:29.088Z,53.65
2019-01-20T16:19:18.487Z,53.28
2019-01-20T16:22:08.028Z,38.30
2019-01-20T16:24:57.318Z,34.98
2019-01-20T16:27:46.517Z,35.08
2019-01-20T16:30:37.986Z,34.92
2019-01-20T16:33:27.521Z,27.85
2019-01-20T16:36:17.506Z,26.60
2019-01-20T16:39:09.231Z,24.70
2019-01-20T16:42:01.143Z,44.70
2019-01-20T16:44:52.369Z,29.72
2019-01-20T16:47:41.864Z,31.37
2019-01-20T16:50:31.381Z,33.90
2019-01-20T16:53:20.750Z,27.00
2019-01-20T16:56:12.521Z,35.78
2019-01-20T16:59:02.410Z,30.40
2019-01-20T17:01:52.292Z,32.83
2019-01-20T17:04:42.639Z,31.30
2019-01-20T17:07:32.200Z,29.60
2019-01-20T17:10:23.320Z,31.40
2019-01-20T17:13:13.515Z,30.37
2019-01-20T17:16:03.337Z,30.77
2019-01-20T17:18:52.951Z,33.78
2019-01-20T17:21:42.305Z,40.73
2019-01-20T17:24:31.911Z,39.10
2019-01-20T17:27:21.229Z,42.03
2019-01-20T17:30:14.167Z,40.65
2019-01-20T17:33:03.612Z,34.70
2019-01-20T17:35:53.041Z,37.98
2019-01-20T17:38:42.831Z,39.35
2019-01-20T17:41:32.248Z,42.35
2019-01-20T17:44:22.730Z,43.92
2019-01-20T17:47:12.261Z,43.20
2019-01-20T17:50:02.200Z,43.78
2019-01-20T17:52:52.880Z,40.63
2019-01-20T17:55:42.873Z,41.48
2019-01-20T17:58:32.768Z,39.60
2019-01-20T18:01:22.821Z,42.80
2019-01-20T18:04:13.018Z,39.60
2019-01-20T18:07:02.485Z,37.80
2019-01-20T18:09:51.991Z,44.60
2019-01-20T18:12:42.231Z,45.15
2019-01-20T18:15:31.929Z,38.15
2019-01-20T18:18:23.198Z,42.90
2019-01-20T18:21:13.365Z,41.50
2019-01-20T18:24:02.830Z,43.92
2019-01-20T18:26:52.008Z,46.92
2019-01-20T18:29:41.713Z,41.15
2019-01-20T18:32:31.999Z,34.73
2019-01-20T18:35:23.222Z,39.83
2019-01-20T18:38:17.135Z,41.95
2019-01-20T18:41:07.511Z,44.60
2019-01-20T18:43:58.051Z,43.28
2019-01-20T18:46:47.229Z,38.53
2019-01-20T18:49:37.013Z,39.13
2019-01-20T18:52:27.641Z,41.37
2019-01-20T18:55:17.382Z,39.50
2019-01-20T18:58:07.701Z,48.15
2019-01-20T19:00:57.290Z,37.00
2019-01-20T19:03:47.459Z,42.65
2019-01-20T19:06:41.068Z,43.38
2019-01-20T19:09:34.412Z,35.75
2019-01-20T19:12:24.919Z,38.55
2019-01-20T19:15:16.394Z,43.83
2019-01-20T19:18:08.739Z,37.60
2019-01-20T19:20:58.259Z,37.58
2019-01-20T19:23:47.458Z,34.92
2019-01-20T19:26:37.479Z,35.08
2019-01-20T19:29:26.813Z,38.92
2019-01-20T19:32:16.445Z,36.17
2019-01-20T19:35:06.822Z,36.05
2019-01-20T19:37:55.809Z,31.35
2019-01-20T19:40:45.904Z,37.78
2019-01-20T19:43:39.991Z,37.53
2019-01-20T19:46:29.728Z,39.23
2019-01-20T19:49:18.852Z,41.13
2019-01-20T19:52:08.410Z,37.73
2019-01-20T19:54:57.762Z,36.42
2019-01-20T19:57:47.630Z,37.00
2019-01-20T20:00:37.252Z,42.30
2019-01-20T20:03:26.802Z,45.70
2019-01-20T20:06:16.042Z,37.90
2019-01-20T20:09:07.030Z,46.48
2019-01-20T20:11:56.470Z,39.18
2019-01-20T20:14:46.051Z,33.38
2019-01-20T20:17:35.632Z,39.13
2019-01-20T20:20:25.139Z,38.38
2019-01-20T20:23:15.578Z,35.30
2019-01-20T20:26:04.820Z,40.45
2019-01-20T20:28:55.102Z,40.45
2019-01-20T20:31:45.602Z,36.68
2019-01-20T20:34:34.785Z,39.98
2019-01-20T20:37:24.034Z,32.73
2019-01-20T20:40:14.654Z,32.78
2019-01-20T20:43:04.973Z,40.50
2019-01-20T20:45:54.249Z,37.33
2019-01-20T20:48:43.574Z,38.65
2019-01-20T20:51:33.102Z,31.70
2019-01-20T20:54:22.350Z,38.95
2019-01-20T20:57:12.654Z,41.48
2019-01-20T21:00:02.324Z,45.65
2019-01-20T21:02:51.663Z,31.15
2019-01-20T21:05:40.910Z,40.52
2019-01-20T21:08:32.295Z,31.85
2019-01-20T21:11:22.078Z,39.67
2019-01-20T21:14:12.008Z,37.48
2019-01-20T21:17:01.191Z,41.55
2019-01-20T21:19:50.535Z,35.45
2019-01-20T21:22:39.764Z,36.95
2019-01-20T21:25:29.051Z,38.53
2019-01-20T21:28:18.602Z,35.92
2019-01-20T21:31:08.113Z,36.55
2019-01-20T21:33:57.544Z,45.63
2019-01-20T21:36:46.849Z,45.30
2019-01-20T21:39:36.233Z,38.02
2019-01-20T21:42:25.439Z,34.10
2019-01-20T21:45:15.294Z,35.63
2019-01-20T21:48:04.499Z,34.30
2019-01-20T21:50:54.031Z,32.00
2019-01-20T21:53:43.422Z,39.25
2019-01-20T21:56:32.802Z,38.30
2019-01-20T21:59:21.750Z,38.92
2019-01-20T22:02:11.083Z,44.25
2019-01-20T22:05:00.370Z,36.95
2019-01-20T22:07:49.668Z,40.23
2019-01-20T22:10:38.981Z,46.55
2019-01-20T22:13:28.429Z,32.75
2019-01-20T22:16:17.720Z,40.60
2019-01-20T22:19:06.983Z,37.93
2019-01-20T22:21:56.213Z,38.15
2019-01-20T22:24:45.518Z,34.35
2019-01-20T22:27:34.710Z,42.23
2019-01-20T22:30:28.043Z,40.50
2019-01-20T22:33:17.352Z,37.42
2019-01-20T22:36:06.795Z,36.53
2019-01-20T22:38:56.070Z,34.15
2019-01-20T22:41:45.271Z,44.95
2019-01-20T22:44:34.518Z,40.35
2019-01-20T22:47:23.914Z,41.10
2019-01-20T22:50:20.400Z,34.88
2019-01-20T22:53:10.684Z,36.10
2019-01-20T22:56:00.591Z,42.43
2019-01-20T22:58:50.300Z,38.90
2019-01-20T23:01:40.244Z,39.78
2019-01-20T23:04:30.369Z,42.10
2019-01-20T23:07:21.060Z,38.88
2019-01-20T23:10:12.381Z,35.30
2019-01-20T23:13:02.353Z,30.60
2019-01-20T23:15:52.818Z,32.90
2019-01-20T23:18:45.255Z,26.90
2019-01-20T23:21:37.835Z,32.93
2019-01-20T23:24:27.859Z,36.83
2019-01-20T23:27:20.432Z,33.15
2019-01-20T23:30:11.579Z,28.50
2019-01-20T23:33:01.323Z,32.83
2019-01-20T23:35:51.280Z,35.65
2019-01-20T23:38:41.619Z,36.13
2019-01-20T23:41:31.560Z,37.73
2019-01-20T23:44:21.689Z,30.75
2019-01-20T23:47:15.276Z,31.02
2019-01-20T23:50:03.459Z,40.15
2019-01-20T23:52:53.453Z,32.60
2019-01-20T23:55:43.318Z,31.95
2019-01-20T23:58:33.742Z,37.78
